createdAt,value
2019-04-21T00:01:03.915Z,7.97
2019-04-21T00:03:37.772Z,8.63
2019-04-21T00:06:19.381Z,7.33
2019-04-21T00:08:48.851Z,7.90
2019-04-21T00:13:43.990Z,6.33
2019-04-21T00:16:02.400Z,7.47
2019-04-21T00:18:58.062Z,7.87
2019-04-21T00:21:29.139Z,7.93
2019-04-21T00:24:20.301Z,8.23
2019-04-21T00:26:57.386Z,17.70
2019-04-21T00:29:36.722Z,20.83
2019-04-21T00:31:56.627Z,26.27
2019-04-21T00:34:11.070Z,17.37
2019-04-21T00:36:51.538Z,19.67
2019-04-21T00:39:36.732Z,22.10
2019-04-21T00:41:59.210Z,24.07
2019-04-21T00:44:21.443Z,24.83
2019-04-21T00:46:55.795Z,22.97
2019-04-21T00:49:31.124Z,25.03
2019-04-21T00:52:40.189Z,23.80
2019-04-21T00:55:10.382Z,23.67
2019-04-21T00:57:32.500Z,23.53
2019-04-21T01:00:00.881Z,23.13
2019-04-21T01:02:32.981Z,22.70
2019-04-21T01:05:02.045Z,20.97
2019-04-21T01:07:28.760Z,21.63
2019-04-21T01:09:51.319Z,18.57
2019-04-21T01:12:26.887Z,21.23
2019-04-21T01:15:06.555Z,19.83
2019-04-21T01:17:21.955Z,17.20
2019-04-21T01:19:52.297Z,11.87
2019-04-21T01:22:03.331Z,8.27
2019-04-21T01:24:36.105Z,9.00
2019-04-21T01:27:11.197Z,9.73
2019-04-21T01:29:59.829Z,8.27
2019-04-21T01:32:24.235Z,8.57
2019-04-21T01:34:45.311Z,9.33
2019-04-21T01:37:14.126Z,8.50
2019-04-21T01:39:53.226Z,10.07
2019-04-21T01:42:19.154Z,7.33
2019-04-21T01:44:48.422Z,7.77
2019-04-21T01:47:10.168Z,6.90
2019-04-21T01:49:39.513Z,6.83
2019-04-21T01:55:12.694Z,6.80
2019-04-21T01:58:00.346Z,5.83
2019-04-21T02:00:39.606Z,9.00
2019-04-21T02:03:26.294Z,7.70
2019-04-21T02:05:44.440Z,5.13
2019-04-21T02:08:13.469Z,7.07
2019-04-21T02:10:47.707Z,7.73
2019-04-21T02:13:08.276Z,7.40
2019-04-21T02:15:46.715Z,6.80
2019-04-21T02:18:06.073Z,5.90
2019-04-21T02:20:30.507Z,5.87
2019-04-21T02:23:23.326Z,5.27
2019-04-21T02:25:38.610Z,5.93
2019-04-21T02:28:12.483Z,5.73
2019-04-21T02:33:29.136Z,6.43
2019-04-21T02:36:15.372Z,5.70
2019-04-21T02:40:46.590Z,5.37
2019-04-21T02:43:18.662Z,4.90
2019-04-21T02:50:50.071Z,6.13
2019-04-21T02:53:18.433Z,5.70
2019-04-21T02:58:28.151Z,9.30
2019-04-21T03:01:06.981Z,7.60
2019-04-21T03:03:41.751Z,10.80
2019-04-21T03:06:25.163Z,12.47
2019-04-21T03:11:14.906Z,12.30
2019-04-21T03:21:16.180Z,17.47
2019-04-21T03:23:57.624Z,16.63
2019-04-21T03:26:28.465Z,18.77
2019-04-21T03:28:46.026Z,15.47
2019-04-21T03:34:22.536Z,16.03
2019-04-21T03:36:41.434Z,16.97
2019-04-21T03:41:12.103Z,13.73
2019-04-21T03:43:43.878Z,14.17
2019-04-21T03:46:11.847Z,12.30
2019-04-21T03:48:46.321Z,15.13
2019-04-21T03:51:12.120Z,10.97
2019-04-21T03:53:39.901Z,13.23
2019-04-21T03:56:44.367Z,12.70
2019-04-21T04:01:41.060Z,10.90
2019-04-21T04:04:40.593Z,12.13
2019-04-21T04:07:39.727Z,11.87
2019-04-21T04:10:06.465Z,14.30
2019-04-21T04:12:26.277Z,11.77
2019-04-21T04:15:12.401Z,15.17
2019-04-21T04:19:54.041Z,17.23
2019-04-21T04:24:57.535Z,16.20
2019-04-21T04:29:57.230Z,17.90
2019-04-21T04:32:23.207Z,20.93
2019-04-21T04:35:03.880Z,15.70
2019-04-21T04:37:38.893Z,17.63
2019-04-21T04:40:13.651Z,15.97
2019-04-21T04:43:09.815Z,21.63
2019-04-21T04:45:38.471Z,19.33
2019-04-21T04:52:51.209Z,16.90
2019-04-21T04:58:04.792Z,21.90
2019-04-21T05:02:56.312Z,18.43
2019-04-21T05:05:26.769Z,21.73
2019-04-21T05:07:57.795Z,17.70
2019-04-21T05:10:29.339Z,18.57
2019-04-21T05:12:53.331Z,18.10
2019-04-21T05:15:16.118Z,19.97
2019-04-21T05:17:50.470Z,17.47
2019-04-21T05:22:44.756Z,20.07
2019-04-21T05:25:09.605Z,23.57
2019-04-21T05:27:38.624Z,19.43
2019-04-21T05:30:27.104Z,17.83
2019-04-21T05:32:59.941Z,14.40
2019-04-21T05:35:45.035Z,16.43
2019-04-21T05:38:17.496Z,17.20
2019-04-21T05:40:45.726Z,17.60
2019-04-21T05:43:25.876Z,16.73
2019-04-21T05:45:53.550Z,15.63
2019-04-21T05:51:03.602Z,15.23
2019-04-21T05:53:42.456Z,13.50
2019-04-21T05:56:23.012Z,13.10
2019-04-21T05:58:31.717Z,16.30
2019-04-21T06:01:16.630Z,14.90
2019-04-21T06:03:47.674Z,16.33
2019-04-21T06:06:19.016Z,15.73
2019-04-21T06:08:38.678Z,17.63
2019-04-21T06:11:10.481Z,16.10
2019-04-21T06:13:42.765Z,16.20
2019-04-21T06:16:09.683Z,16.47
2019-04-21T06:18:44.502Z,17.63
2019-04-21T06:21:07.226Z,16.50
2019-04-21T06:23:36.508Z,15.37
2019-04-21T06:26:20.037Z,19.80
2019-04-21T06:28:43.992Z,17.07
2019-04-21T06:33:35.636Z,18.63
2019-04-21T06:39:06.507Z,17.10
2019-04-21T06:46:33.415Z,15.57
2019-04-21T06:51:27.473Z,14.90
2019-04-21T06:53:59.540Z,16.47
2019-04-21T06:56:21.804Z,19.37
2019-04-21T06:58:53.473Z,15.27
2019-04-21T07:01:26.454Z,15.67
2019-04-21T07:04:05.924Z,16.10
2019-04-21T07:06:31.971Z,19.93
2019-04-21T07:09:10.345Z,15.70
2019-04-21T07:11:25.303Z,14.50
2019-04-21T07:14:13.539Z,14.80
2019-04-21T07:16:32.022Z,12.87
2019-04-21T07:21:27.534Z,11.37
2019-04-21T07:23:58.936Z,16.67
2019-04-21T07:26:25.623Z,12.90
2019-04-21T07:29:01.826Z,16.87
2019-04-21T07:31:25.457Z,17.67
2019-04-21T07:36:32.355Z,14.63
2019-04-21T07:38:54.585Z,13.30
2019-04-21T07:41:16.242Z,12.33
2019-04-21T07:43:54.603Z,15.23
2019-04-21T07:46:23.761Z,15.30
2019-04-21T07:49:25.245Z,15.17
2019-04-21T07:52:03.057Z,16.27
2019-04-21T07:56:44.196Z,15.80
2019-04-21T07:59:39.471Z,17.77
2019-04-21T08:02:02.649Z,18.77
2019-04-21T08:04:49.533Z,17.13
2019-04-21T08:07:14.903Z,17.57
2019-04-21T08:09:29.779Z,16.60
2019-04-21T08:11:56.183Z,17.80
2019-04-21T08:14:28.654Z,17.67
2019-04-21T08:16:58.488Z,18.43
2019-04-21T08:19:25.220Z,20.27
2019-04-21T08:21:59.662Z,17.67
2019-04-21T08:24:19.767Z,18.43
2019-04-21T08:27:03.222Z,16.87
2019-04-21T08:29:40.396Z,18.90
2019-04-21T08:31:56.192Z,19.23
2019-04-21T08:34:24.138Z,16.27
2019-04-21T08:36:51.498Z,17.50
2019-04-21T08:39:25.315Z,15.90
2019-04-21T08:41:52.343Z,16.67
2019-04-21T08:44:25.645Z,17.27
2019-04-21T08:46:55.595Z,14.47
2019-04-21T08:49:15.012Z,16.30
2019-04-21T08:51:51.995Z,15.47
2019-04-21T08:54:21.487Z,17.90
2019-04-21T08:56:55.866Z,21.27
2019-04-21T08:59:43.789Z,16.47
2019-04-21T09:05:04.683Z,13.93
2019-04-21T09:07:39.110Z,14.53
2019-04-21T09:10:06.808Z,14.63
2019-04-21T09:12:39.272Z,11.63
2019-04-21T09:15:00.849Z,10.90
2019-04-21T09:17:28.684Z,11.30
2019-04-21T09:20:07.583Z,8.70
2019-04-21T09:22:29.827Z,9.83
2019-04-21T09:25:01.460Z,8.13
2019-04-21T09:27:29.467Z,8.90
2019-04-21T09:29:49.474Z,8.80
2019-04-21T09:32:17.741Z,7.90
2019-04-21T09:34:43.738Z,8.13
2019-04-21T09:37:24.298Z,9.63
2019-04-21T09:39:43.808Z,6.63
2019-04-21T09:42:08.919Z,7.60
2019-04-21T09:44:40.141Z,7.83
2019-04-21T09:47:07.384Z,6.03
2019-04-21T09:49:37.451Z,6.60
2019-04-21T09:52:07.917Z,5.60
2019-04-21T09:54:45.245Z,6.13
2019-04-21T09:57:08.945Z,6.20
2019-04-21T09:59:38.700Z,7.57
2019-04-21T10:02:09.746Z,5.33
2019-04-21T10:04:33.572Z,6.43
2019-04-21T10:07:02.450Z,6.57
2019-04-21T10:09:31.058Z,6.43
2019-04-21T10:11:58.685Z,5.07
2019-04-21T10:14:28.627Z,5.00
2019-04-21T10:17:25.002Z,8.07
2019-04-21T10:19:52.923Z,4.97
2019-04-21T10:22:23.223Z,5.90
2019-04-21T10:24:52.075Z,6.03
2019-04-21T10:27:21.020Z,6.13
2019-04-21T10:29:50.427Z,5.20
2019-04-21T10:32:21.581Z,6.00
2019-04-21T10:34:47.887Z,5.30
2019-04-21T10:37:16.698Z,5.47
2019-04-21T10:39:49.623Z,4.27
2019-04-21T10:42:17.903Z,7.67
2019-04-21T10:44:45.369Z,5.17
2019-04-21T10:47:14.492Z,5.93
2019-04-21T10:49:44.863Z,4.27
2019-04-21T10:52:24.803Z,4.83
2019-04-21T10:55:12.827Z,4.53
2019-04-21T10:57:26.421Z,5.13
2019-04-21T10:59:56.052Z,5.03
2019-04-21T11:02:43.390Z,5.27
2019-04-21T11:05:12.498Z,5.53
2019-04-21T11:08:10.130Z,6.20
2019-04-21T11:10:27.833Z,4.83
2019-04-21T11:12:56.735Z,4.23
2019-04-21T11:15:25.281Z,4.80
2019-04-21T11:17:54.480Z,4.27
2019-04-21T11:20:22.894Z,5.53
2019-04-21T11:22:51.359Z,3.90
2019-04-21T11:25:20.013Z,5.23
2019-04-21T11:27:49.069Z,5.17
2019-04-21T11:30:17.796Z,4.43
2019-04-21T11:32:47.658Z,4.80
2019-04-21T11:35:15.224Z,5.00
2019-04-21T11:37:44.018Z,4.33
2019-04-21T11:40:14.975Z,5.10
2019-04-21T11:42:42.012Z,5.57
2019-04-21T11:45:14.694Z,6.03
2019-04-21T11:47:56.344Z,5.33
2019-04-21T11:50:25.195Z,4.47
2019-04-21T11:52:52.879Z,5.87
2019-04-21T11:55:20.641Z,4.43
2019-04-21T11:57:50.179Z,6.37
2019-04-21T12:00:18.005Z,4.63
2019-04-21T12:02:45.735Z,8.50
2019-04-21T12:05:13.420Z,6.53
2019-04-21T12:07:40.993Z,4.87
2019-04-21T12:10:09.229Z,6.00
2019-04-21T12:12:37.141Z,4.40
2019-04-21T12:15:06.122Z,4.47
2019-04-21T12:17:34.161Z,4.43
2019-04-21T12:20:03.181Z,4.93
2019-04-21T12:22:33.842Z,5.00
2019-04-21T12:25:00.942Z,4.90
2019-04-21T12:27:29.822Z,4.17
2019-04-21T12:29:57.756Z,5.60
2019-04-21T12:32:40.122Z,4.80
2019-04-21T12:35:10.043Z,4.47
2019-04-21T12:37:37.670Z,4.93
2019-04-21T12:40:06.461Z,6.67
2019-04-21T12:42:34.580Z,5.03
2019-04-21T12:45:03.602Z,4.93
2019-04-21T12:47:32.089Z,5.00
2019-04-21T12:49:59.744Z,7.83
2019-04-21T12:52:27.505Z,7.20
2019-04-21T12:54:55.575Z,7.77
2019-04-21T12:57:23.410Z,7.23
2019-04-21T12:59:51.223Z,4.47
2019-04-21T13:02:19.788Z,5.37
2019-04-21T13:04:49.688Z,5.80
2019-04-21T13:07:17.410Z,3.93
2019-04-21T13:09:46.338Z,4.83
2019-04-21T13:12:15.204Z,4.37
2019-04-21T13:14:44.006Z,4.97
2019-04-21T13:17:13.015Z,4.10
2019-04-21T13:19:41.203Z,5.00
2019-04-21T13:22:09.973Z,4.53
2019-04-21T13:24:37.931Z,4.47
2019-04-21T13:27:07.501Z,6.47
2019-04-21T13:29:36.443Z,4.23
2019-04-21T13:32:05.475Z,4.93
2019-04-21T13:34:33.839Z,4.60
2019-04-21T13:37:01.822Z,4.90
2019-04-21T13:40:14.730Z,6.03
2019-04-21T13:42:28.184Z,7.20
2019-04-21T13:44:50.964Z,4.07
2019-04-21T13:47:18.682Z,4.37
2019-04-21T13:49:47.610Z,4.80
2019-04-21T13:52:15.655Z,5.43
2019-04-21T13:54:43.336Z,4.70
2019-04-21T13:57:12.426Z,5.30
2019-04-21T13:59:40.406Z,5.50
2019-04-21T14:02:08.915Z,6.40
2019-04-21T14:04:37.748Z,5.87
2019-04-21T14:07:06.069Z,4.67
2019-04-21T14:09:40.251Z,6.97
2019-04-21T14:12:03.459Z,5.07
2019-04-21T14:14:32.249Z,6.33
2019-04-21T14:17:00.493Z,5.00
2019-04-21T14:19:28.193Z,5.47
2019-04-21T14:21:57.020Z,9.43
2019-04-21T14:24:24.739Z,5.13
2019-04-21T14:26:52.298Z,5.03
2019-04-21T14:29:19.889Z,4.83
2019-04-21T14:31:48.450Z,6.67
2019-04-21T14:34:16.360Z,5.00
2019-04-21T14:36:44.563Z,6.43
2019-04-21T14:39:12.523Z,4.23
2019-04-21T14:41:40.438Z,5.67
2019-04-21T14:44:09.088Z,5.03
2019-04-21T14:46:45.241Z,4.93
2019-04-21T14:49:19.335Z,5.03
2019-04-21T14:51:55.090Z,6.00
2019-04-21T14:54:51.020Z,5.20
2019-04-21T14:57:18.964Z,6.80
2019-04-21T14:59:46.962Z,5.47
2019-04-21T15:02:16.010Z,7.73
2019-04-21T15:04:43.988Z,4.63
2019-04-21T15:07:11.373Z,5.00
2019-04-21T15:09:40.819Z,6.67
2019-04-21T15:12:09.962Z,5.07
2019-04-21T15:14:38.041Z,4.80
2019-04-21T15:17:07.091Z,5.07
2019-04-21T15:19:34.876Z,5.13
2019-04-21T15:22:02.690Z,5.00
2019-04-21T15:24:30.290Z,5.33
2019-04-21T15:27:00.993Z,5.90
2019-04-21T15:29:29.020Z,6.73
2019-04-21T15:31:56.889Z,6.57
2019-04-21T15:34:25.997Z,6.20
2019-04-21T15:36:54.047Z,5.07
2019-04-21T15:39:21.576Z,5.20
2019-04-21T15:41:50.488Z,4.83
2019-04-21T15:44:18.644Z,6.50
2019-04-21T15:46:52.099Z,4.50
2019-04-21T15:49:20.794Z,5.47
2019-04-21T15:51:49.583Z,4.53
2019-04-21T15:54:18.527Z,4.57
2019-04-21T15:56:51.446Z,6.17
2019-04-21T15:59:50.763Z,5.03
2019-04-21T16:02:44.645Z,4.73
2019-04-21T16:05:14.972Z,4.30
2019-04-21T16:07:42.635Z,5.63
2019-04-21T16:10:21.308Z,5.47
2019-04-21T16:12:41.393Z,5.97
2019-04-21T16:15:10.451Z,5.60
2019-04-21T16:17:39.273Z,5.80
2019-04-21T16:20:08.098Z,4.57
2019-04-21T16:22:36.849Z,5.77
2019-04-21T16:25:05.928Z,6.07
2019-04-21T16:27:33.633Z,6.87
2019-04-21T16:30:01.972Z,5.50
2019-04-21T16:32:30.172Z,6.63
2019-04-21T16:35:03.907Z,6.47
2019-04-21T16:37:27.818Z,4.43
2019-04-21T16:39:55.725Z,6.93
2019-04-21T16:42:24.503Z,5.70
2019-04-21T16:44:52.767Z,6.43
2019-04-21T16:47:21.518Z,6.60
2019-04-21T16:49:49.857Z,9.30
2019-04-21T16:52:23.645Z,6.00
2019-04-21T16:54:56.105Z,5.90
2019-04-21T16:57:31.062Z,10.00
2019-04-21T17:00:04.416Z,7.03
2019-04-21T17:02:32.494Z,9.93
2019-04-21T17:05:00.428Z,7.07
2019-04-21T17:07:28.211Z,10.13
2019-04-21T17:09:56.880Z,11.73
2019-04-21T17:12:26.314Z,10.03
2019-04-21T17:15:10.836Z,13.13
2019-04-21T17:17:43.025Z,14.27
2019-04-21T17:19:55.700Z,17.40
2019-04-21T17:22:23.615Z,9.30
2019-04-21T17:24:52.561Z,11.03
2019-04-21T17:27:20.781Z,14.33
2019-04-21T17:29:48.650Z,12.40
2019-04-21T17:32:16.546Z,17.63
2019-04-21T17:34:44.009Z,17.33
2019-04-21T17:37:12.766Z,18.20
2019-04-21T17:39:40.777Z,22.07
2019-04-21T17:42:18.669Z,25.27
2019-04-21T17:44:37.689Z,18.03
2019-04-21T17:47:13.267Z,17.63
2019-04-21T17:49:34.889Z,21.27
2019-04-21T17:52:22.129Z,21.00
2019-04-21T17:55:10.353Z,19.90
2019-04-21T17:57:52.162Z,16.03
2019-04-21T18:00:26.135Z,18.03
2019-04-21T18:02:53.441Z,15.60
2019-04-21T18:05:21.100Z,12.80
2019-04-21T18:07:47.820Z,16.83
2019-04-21T18:10:15.918Z,16.23
2019-04-21T18:12:40.028Z,17.57
2019-04-21T18:15:16.695Z,13.50
2019-04-21T18:17:27.002Z,27.90
2019-04-21T18:19:55.623Z,20.30
2019-04-21T18:22:52.984Z,21.73
2019-04-21T18:25:32.030Z,21.27
2019-04-21T18:27:52.499Z,21.57
2019-04-21T18:30:40.211Z,18.47
2019-04-21T18:33:15.615Z,17.50
2019-04-21T18:36:07.092Z,16.17
2019-04-21T18:39:14.262Z,20.40
2019-04-21T18:41:32.211Z,12.77
2019-04-21T18:44:35.607Z,14.30
2019-04-21T18:47:14.767Z,13.30
2019-04-21T18:49:31.136Z,11.80
2019-04-21T18:52:22.505Z,11.43
2019-04-21T18:54:58.566Z,10.50
2019-04-21T18:57:22.848Z,11.47
2019-04-21T18:59:45.186Z,11.47
2019-04-21T19:02:14.891Z,9.80
2019-04-21T19:04:42.345Z,9.63
2019-04-21T19:07:19.868Z,10.43
2019-04-21T19:10:16.070Z,9.13
2019-04-21T19:12:42.427Z,8.17
2019-04-21T19:14:56.669Z,8.50
2019-04-21T19:20:01.946Z,8.93
2019-04-21T19:22:26.754Z,9.47
2019-04-21T19:25:00.824Z,10.03
2019-04-21T19:27:40.253Z,8.87
2019-04-21T19:30:18.887Z,8.03
2019-04-21T19:32:26.711Z,7.83
2019-04-21T19:34:40.364Z,9.60
2019-04-21T19:37:10.858Z,7.27
2019-04-21T19:39:48.494Z,8.57
2019-04-21T19:42:12.770Z,9.53
2019-04-21T19:44:47.291Z,8.77
2019-04-21T19:47:25.804Z,9.30
2019-04-21T19:49:51.361Z,9.60
2019-04-21T19:52:06.557Z,8.63
2019-04-21T19:54:35.831Z,8.47
2019-04-21T19:57:00.751Z,7.13
2019-04-21T19:59:36.632Z,10.43
2019-04-21T20:01:58.325Z,8.50
2019-04-21T20:04:34.118Z,10.57
2019-04-21T20:07:02.753Z,7.00
2019-04-21T20:09:40.614Z,9.70
2019-04-21T20:12:09.601Z,6.60
2019-04-21T20:15:00.286Z,9.50
2019-04-21T20:17:08.309Z,7.20
2019-04-21T20:19:24.786Z,7.23
2019-04-21T20:21:53.500Z,7.97
2019-04-21T20:24:26.549Z,7.00
2019-04-21T20:27:01.277Z,8.30
2019-04-21T20:29:38.908Z,5.93
2019-04-21T20:32:04.595Z,6.17
2019-04-21T20:34:38.698Z,6.87
2019-04-21T20:37:12.805Z,7.37
2019-04-21T20:39:23.026Z,7.07
2019-04-21T20:42:01.804Z,6.87
2019-04-21T20:44:29.866Z,6.93
2019-04-21T20:46:59.114Z,7.57
2019-04-21T20:49:27.122Z,5.73
2019-04-21T20:52:06.215Z,9.70
2019-04-21T20:54:28.832Z,5.87
2019-04-21T20:57:02.771Z,5.40
2019-04-21T20:59:25.121Z,6.43
2019-04-21T21:02:02.922Z,8.63
2019-04-21T21:04:21.670Z,6.77
2019-04-21T21:07:03.274Z,6.10
2019-04-21T21:09:25.586Z,8.07
2019-04-21T21:12:11.414Z,8.83
2019-04-21T21:14:30.857Z,8.63
2019-04-21T21:17:01.245Z,16.53
2019-04-21T21:19:29.093Z,12.53
2019-04-21T21:21:49.710Z,16.70
2019-04-21T21:24:32.993Z,8.13
2019-04-21T21:26:54.623Z,13.63
2019-04-21T21:29:25.232Z,12.87
2019-04-21T21:31:55.545Z,12.73
2019-04-21T21:34:27.878Z,11.97
2019-04-21T21:36:53.781Z,9.47
2019-04-21T21:39:23.380Z,15.43
2019-04-21T21:41:40.997Z,12.77
2019-04-21T21:44:11.311Z,14.57
2019-04-21T21:46:49.324Z,12.23
2019-04-21T21:49:20.757Z,13.43
2019-04-21T21:51:43.261Z,15.77
2019-04-21T21:54:04.642Z,11.53
2019-04-21T21:56:32.575Z,15.30
2019-04-21T21:59:01.188Z,13.20
2019-04-21T22:01:37.938Z,14.67
2019-04-21T22:04:08.441Z,12.00
2019-04-21T22:06:41.001Z,13.90
2019-04-21T22:08:58.508Z,11.97
2019-04-21T22:11:26.348Z,9.57
2019-04-21T22:14:01.880Z,10.67
2019-04-21T22:16:39.054Z,10.83
2019-04-21T22:19:13.280Z,9.23
2019-04-21T22:21:44.229Z,9.40
2019-04-21T22:24:00.301Z,9.90
2019-04-21T22:26:21.156Z,9.97
2019-04-21T22:28:49.672Z,7.80
2019-04-21T22:31:22.912Z,8.47
2019-04-21T22:33:50.200Z,11.10
2019-04-21T22:36:29.969Z,9.13
2019-04-21T22:39:05.211Z,7.03
2019-04-21T22:41:28.161Z,7.27
2019-04-21T22:43:48.229Z,7.57
2019-04-21T22:46:15.454Z,9.50
2019-04-21T22:48:45.280Z,6.47
2019-04-21T22:51:20.635Z,7.33
2019-04-21T22:53:47.216Z,8.43
2019-04-21T22:56:18.439Z,8.73
2019-04-21T22:58:44.001Z,8.50
2019-04-21T23:01:11.011Z,8.23
2019-04-21T23:03:40.170Z,8.00
2019-04-21T23:06:16.847Z,7.57
2019-04-21T23:08:41.678Z,11.00
2019-04-21T23:11:10.910Z,7.27
2019-04-21T23:13:36.474Z,8.53
2019-04-21T23:16:06.194Z,8.00
2019-04-21T23:18:46.440Z,7.10
2019-04-21T23:21:16.342Z,8.40
2019-04-21T23:23:49.943Z,10.00
2019-04-21T23:26:21.973Z,7.57
2019-04-21T23:28:52.461Z,9.27
2019-04-21T23:31:25.966Z,11.53
2019-04-21T23:33:31.458Z,8.50
2019-04-21T23:36:09.664Z,8.57
2019-04-21T23:38:36.844Z,8.13
2019-04-21T23:41:01.801Z,7.90
2019-04-21T23:43:31.094Z,9.60
2019-04-21T23:45:57.442Z,8.77
2019-04-21T23:48:38.996Z,7.80
2019-04-21T23:51:10.883Z,8.40
2019-04-21T23:53:25.739Z,7.87
2019-04-21T23:55:53.338Z,8.73
2019-04-21T23:58:25.251Z,7.70
